Time;durP1;ratioP1;P1;durP2;ratioP2;P2;SDS_P1;SDS_P2;PMS_P1;PMS_P2;Temp;Humidity;BMP_temperature;BMP_pressure;BME280_temperature;BME280_humidity;BME280_pressure;Samples;Min_cycle;Max_cycle;Signal;HPM_P1;HPM_P2
2023/12/02 00:00:08;;;;;;;14.97;9.03;;;1.10;99.90;;;;;;5072572;28;20265;-68
2023/12/02 00:02:34;;;;;;;12.57;8.93;;;1.00;99.90;;;;;;5073952;28;20163;-68
2023/12/02 00:05:00;;;;;;;18.53;9.40;;;1.00;99.90;;;;;;5074346;28;20492;-69
2023/12/02 00:07:26;;;;;;;12.03;8.37;;;1.00;99.90;;;;;;5074045;28;20174;-69
2023/12/02 00:09:51;;;;;;;10.20;8.13;;;0.90;99.90;;;;;;5073990;28;20483;-68
2023/12/02 00:12:17;;;;;;;11.10;7.53;;;0.90;99.90;;;;;;5073522;28;20379;-69
2023/12/02 00:14:43;;;;;;;12.40;8.13;;;0.90;99.90;;;;;;5073801;28;20174;-69
2023/12/02 00:17:08;;;;;;;11.17;7.80;;;0.80;99.90;;;;;;5073046;28;20194;-69
2023/12/02 00:19:34;;;;;;;12.30;8.70;;;0.70;99.90;;;;;;5074014;28;20252;-68
2023/12/02 00:21:59;;;;;;;10.70;7.90;;;0.70;99.90;;;;;;5073893;28;20167;-69
2023/12/02 00:24:25;;;;;;;14.37;8.13;;;0.80;99.90;;;;;;5073808;28;20171;-69
2023/12/02 00:26:50;;;;;;;17.53;8.77;;;0.80;99.90;;;;;;5073475;28;20549;-68
2023/12/02 00:29:16;;;;;;;15.17;8.23;;;0.80;99.90;;;;;;5073574;28;20542;-68
2023/12/02 00:31:41;;;;;;;13.27;8.70;;;0.80;99.90;;;;;;5073524;28;20181;-69
2023/12/02 00:34:07;;;;;;;11.23;7.33;;;0.80;99.90;;;;;;5073616;28;20178;-69
2023/12/02 00:36:32;;;;;;;15.80;8.50;;;0.70;99.90;;;;;;5073400;28;20198;-69
2023/12/02 00:38:58;;;;;;;11.60;7.83;;;0.60;99.90;;;;;;5072123;28;20544;-69
2023/12/02 00:41:23;;;;;;;16.97;11.40;;;0.70;99.90;;;;;;5073316;28;20239;-68
2023/12/02 00:43:49;;;;;;;14.97;10.50;;;0.70;99.90;;;;;;5073418;28;20533;-72
2023/12/02 00:46:14;;;;;;;14.10;10.10;;;0.70;99.90;;;;;;5073365;28;20177;-69
2023/12/02 00:48:40;;;;;;;9.90;7.50;;;0.70;99.90;;;;;;5071930;28;20522;-69
2023/12/02 00:51:06;;;;;;;16.17;10.30;;;0.70;99.90;;;;;;5073306;28;20669;-69
2023/12/02 00:53:31;;;;;;;14.30;10.13;;;0.70;99.90;;;;;;5073212;28;20596;-69
2023/12/02 00:55:57;;;;;;;13.07;8.10;;;0.70;99.90;;;;;;5073126;28;20487;-69
2023/12/02 00:58:23;;;;;;;18.07;8.97;;;0.70;99.90;;;;;;5073006;28;20177;-69
2023/12/02 01:00:48;;;;;;;9.30;7.03;;;0.70;99.90;;;;;;5072984;28;20208;-69
2023/12/02 01:03:14;;;;;;;12.13;8.30;;;0.70;99.90;;;;;;5073232;28;20174;-69
2023/12/02 01:05:39;;;;;;;12.03;8.30;;;0.70;99.90;;;;;;5072973;28;20166;-69
2023/12/02 01:08:05;;;;;;;14.80;8.13;;;0.80;99.90;;;;;;5072896;28;20166;-68
2023/12/02 01:10:30;;;;;;;11.23;7.37;;;0.70;99.90;;;;;;5071624;28;20660;-69
2023/12/02 01:12:56;;;;;;;12.07;7.50;;;0.70;99.90;;;;;;5071783;28;20162;-69
2023/12/02 01:15:22;;;;;;;15.83;7.50;;;0.70;99.90;;;;;;5071629;28;20170;-68
2023/12/02 01:17:47;;;;;;;11.63;6.57;;;0.80;99.90;;;;;;5071227;28;20820;-69
2023/12/02 01:20:13;;;;;;;13.20;8.07;;;0.70;99.90;;;;;;5072709;28;20190;-68
2023/12/02 01:22:39;;;;;;;10.90;7.47;;;0.70;99.90;;;;;;5072489;28;20538;-68
2023/12/02 01:25:05;;;;;;;12.90;6.93;;;0.70;99.90;;;;;;5072702;28;20198;-69
2023/12/02 01:27:30;;;;;;;10.20;7.83;;;0.80;99.90;;;;;;5072424;28;20200;-70
2023/12/02 01:29:56;;;;;;;13.10;9.00;;;0.80;99.90;;;;;;5072452;28;20428;-70
2023/12/02 01:32:21;;;;;;;15.10;9.30;;;0.80;99.90;;;;;;5071123;28;20177;-69
2023/12/02 01:34:47;;;;;;;13.00;8.30;;;0.80;99.90;;;;;;5072946;28;20293;-70
2023/12/02 01:37:12;;;;;;;10.97;7.03;;;0.80;99.90;;;;;;5072177;28;20198;-70
2023/12/02 01:39:38;;;;;;;13.23;7.33;;;0.80;99.90;;;;;;5072509;28;20182;-70
2023/12/02 01:42:04;;;;;;;12.67;8.33;;;0.70;99.90;;;;;;5072471;28;20163;-69
2023/12/02 01:44:30;;;;;;;15.03;8.13;;;0.70;99.90;;;;;;5072450;28;20162;-70
2023/12/02 01:46:56;;;;;;;10.80;7.73;;;0.70;99.90;;;;;;5072200;28;20409;-70
2023/12/02 01:49:22;;;;;;;15.80;8.87;;;0.80;99.90;;;;;;5072061;28;20412;-70
2023/12/02 01:51:48;;;;;;;9.53;7.43;;;0.80;99.90;;;;;;5072165;28;20177;-70
2023/12/02 01:54:14;;;;;;;11.50;7.63;;;0.80;99.90;;;;;;5072213;28;20455;-69
2023/12/02 01:56:40;;;;;;;11.57;7.47;;;0.80;99.90;;;;;;5072103;28;20448;-70
2023/12/02 01:59:06;;;;;;;15.10;7.40;;;0.80;99.90;;;;;;5071720;28;20171;-70
2023/12/02 02:01:31;;;;;;;9.47;7.40;;;0.80;99.90;;;;;;5072216;28;20178;-70
2023/12/02 02:03:59;;;;;;;11.30;6.57;;;0.80;99.90;;;;;;5072318;28;20920;-70
2023/12/02 02:06:24;;;;;;;16.00;8.60;;;0.80;99.90;;;;;;5072315;28;20201;-70
2023/12/02 02:08:50;;;;;;;11.00;6.90;;;0.70;99.90;;;;;;5071970;28;20436;-69
2023/12/02 02:11:16;;;;;;;10.90;7.63;;;0.70;99.90;;;;;;5070720;28;20497;-69
2023/12/02 02:13:41;;;;;;;9.70;6.83;;;0.70;99.90;;;;;;5072115;28;20174;-69
2023/12/02 02:16:07;;;;;;;12.20;8.37;;;0.70;99.90;;;;;;5070877;28;20198;-69
2023/12/02 02:18:36;;;;;;;11.77;7.20;;;0.80;99.90;;;;;;5071931;28;20166;-69
2023/12/02 02:21:01;;;;;;;8.50;6.10;;;0.70;99.90;;;;;;5071891;28;20182;-69
2023/12/02 02:23:27;;;;;;;13.60;7.57;;;0.70;99.90;;;;;;5071917;28;20404;-69
2023/12/02 02:25:53;;;;;;;10.00;6.97;;;0.80;99.90;;;;;;5072072;28;20281;-69
2023/12/02 02:28:23;;;;;;;13.30;7.70;;;0.80;99.90;;;;;;5071855;28;20242;-70
2023/12/02 02:30:49;;;;;;;11.17;7.20;;;0.80;99.90;;;;;;5071864;28;20232;-69
2023/12/02 02:33:15;;;;;;;11.00;6.90;;;0.70;99.90;;;;;;5070822;28;20443;-69
2023/12/02 02:35:41;;;;;;;8.80;6.50;;;0.80;99.90;;;;;;5071723;28;20253;-70
2023/12/02 02:38:07;;;;;;;11.37;6.47;;;0.80;99.90;;;;;;5071682;28;20946;-70
2023/12/02 02:40:32;;;;;;;15.80;7.57;;;0.80;99.90;;;;;;5071849;28;20648;-70
2023/12/02 02:42:58;;;;;;;9.30;5.87;;;0.70;99.90;;;;;;5071639;28;20182;-70
2023/12/02 02:45:23;;;;;;;13.00;7.37;;;0.70;99.90;;;;;;5071847;28;20186;-69
2023/12/02 02:47:49;;;;;;;9.63;6.33;;;0.70;99.90;;;;;;5071627;28;20181;-69
2023/12/02 02:50:15;;;;;;;21.13;7.57;;;0.70;99.90;;;;;;5070396;28;20288;-69
2023/12/02 02:52:42;;;;;;;7.87;5.70;;;0.80;99.90;;;;;;5070378;28;20496;-68
2023/12/02 02:55:08;;;;;;;11.60;6.80;;;0.80;99.90;;;;;;5071505;28;20507;-69
2023/12/02 02:57:34;;;;;;;10.97;6.90;;;0.80;99.90;;;;;;5070127;28;20539;-69
2023/12/02 02:59:59;;;;;;;10.13;6.80;;;0.80;99.90;;;;;;5070334;28;20196;-69
2023/12/02 03:02:25;;;;;;;10.40;7.23;;;0.80;99.90;;;;;;5070427;28;20244;-69
2023/12/02 03:04:50;;;;;;;9.60;6.37;;;0.90;99.90;;;;;;5071561;28;20703;-69
2023/12/02 03:07:16;;;;;;;9.50;5.83;;;0.90;99.90;;;;;;5071179;28;20170;-70
2023/12/02 03:09:41;;;;;;;9.03;6.20;;;0.90;99.90;;;;;;5071930;28;20197;-69
2023/12/02 03:12:07;;;;;;;9.93;6.63;;;0.90;99.90;;;;;;5075111;28;20166;-70
2023/12/02 03:14:32;;;;;;;9.97;5.93;;;0.90;99.90;;;;;;5075270;28;20524;-69
2023/12/02 03:16:58;;;;;;;10.70;6.67;;;1.00;99.90;;;;;;5074961;28;20696;-70
2023/12/02 03:19:23;;;;;;;13.43;8.13;;;1.00;99.90;;;;;;5075062;28;20173;-69
2023/12/02 03:21:49;;;;;;;8.53;5.77;;;1.00;99.90;;;;;;5074842;28;20170;-69
2023/12/02 03:24:14;;;;;;;11.70;6.50;;;1.00;99.90;;;;;;5075076;28;20515;-69
2023/12/02 03:26:41;;;;;;;13.40;7.00;;;1.10;99.90;;;;;;5074898;28;20173;-70
2023/12/02 03:29:07;;;;;;;9.27;6.40;;;1.10;99.90;;;;;;5073748;28;20182;-69
2023/12/02 03:31:33;;;;;;;9.67;6.70;;;1.10;99.90;;;;;;5074855;28;20443;-70
2023/12/02 03:33:59;;;;;;;11.13;6.33;;;1.20;99.90;;;;;;5073601;28;20505;-69
2023/12/02 03:36:24;;;;;;;8.97;6.30;;;1.20;99.90;;;;;;5074764;28;20510;-69
2023/12/02 03:38:50;;;;;;;11.67;6.03;;;1.20;99.90;;;;;;5074532;28;20169;-69
2023/12/02 03:41:15;;;;;;;8.20;6.00;;;1.20;99.90;;;;;;5074592;28;20217;-69
2023/12/02 03:43:41;;;;;;;11.00;6.63;;;1.30;99.90;;;;;;5074689;28;20256;-69
2023/12/02 03:46:06;;;;;;;11.40;6.77;;;1.20;99.90;;;;;;5074633;28;20198;-69
2023/12/02 03:48:32;;;;;;;11.83;6.50;;;1.30;99.90;;;;;;5074469;28;20241;-69
2023/12/02 03:50:58;;;;;;;7.80;5.83;;;1.30;99.90;;;;;;5074314;28;20610;-69
2023/12/02 03:53:25;;;;;;;13.53;7.87;;;1.20;99.90;;;;;;5074400;28;20528;-69
2023/12/02 03:55:51;;;;;;;9.30;6.03;;;1.30;99.90;;;;;;5074373;28;20436;-69
2023/12/02 03:58:16;;;;;;;10.17;6.77;;;1.30;99.90;;;;;;5074270;28;20805;-70
2023/12/02 04:00:42;;;;;;;13.40;7.70;;;1.30;99.90;;;;;;5074291;28;20420;-69
2023/12/02 04:03:08;;;;;;;11.57;7.43;;;1.30;99.90;;;;;;5074380;28;20174;-69
2023/12/02 04:05:34;;;;;;;12.30;7.10;;;1.30;99.90;;;;;;5074288;28;20194;-69
2023/12/02 04:07:59;;;;;;;10.33;6.80;;;1.30;99.90;;;;;;5073953;28;20444;-68
2023/12/02 04:10:25;;;;;;;12.27;7.10;;;1.30;99.90;;;;;;5073870;28;20194;-69
2023/12/02 04:12:50;;;;;;;12.17;7.10;;;1.30;99.90;;;;;;5074083;28;20174;-69
2023/12/02 04:15:16;;;;;;;10.33;7.00;;;1.30;99.90;;;;;;5074093;28;20237;-69
2023/12/02 04:17:42;;;;;;;8.77;6.20;;;1.40;99.90;;;;;;5073878;28;20198;-69
2023/12/02 04:20:08;;;;;;;9.80;6.13;;;1.20;99.90;;;;;;5073866;28;20210;-69
2023/12/02 04:22:35;;;;;;;8.20;5.93;;;1.20;99.90;;;;;;5073214;28;20454;-69
2023/12/02 04:25:00;;;;;;;11.90;7.10;;;1.30;99.90;;;;;;5072562;28;20733;-69
2023/12/02 04:27:26;;;;;;;8.73;6.63;;;1.20;99.90;;;;;;5073621;28;20491;-69
2023/12/02 04:29:51;;;;;;;7.60;6.10;;;1.20;99.90;;;;;;5073633;28;20190;-69
2023/12/02 04:32:17;;;;;;;10.93;5.67;;;1.30;99.90;;;;;;5073448;28;20537;-70
2023/12/02 04:34:43;;;;;;;11.33;6.40;;;1.20;99.90;;;;;;5073420;28;20174;-69
2023/12/02 04:37:08;;;;;;;7.93;5.83;;;1.20;99.90;;;;;;5073228;28;20649;-69
2023/12/02 04:39:34;;;;;;;8.70;6.17;;;1.20;99.90;;;;;;5073439;28;20407;-69
2023/12/02 04:42:00;;;;;;;9.57;5.60;;;1.20;99.90;;;;;;5072119;28;20275;-70
2023/12/02 04:44:25;;;;;;;9.30;5.90;;;1.30;99.90;;;;;;5073594;28;20170;-69
2023/12/02 04:46:51;;;;;;;10.37;6.03;;;1.20;99.90;;;;;;5072039;28;20185;-70
2023/12/02 04:49:16;;;;;;;9.13;5.97;;;1.20;99.90;;;;;;5073540;28;20174;-70
2023/12/02 04:51:42;;;;;;;10.20;7.10;;;1.20;99.90;;;;;;5073282;28;20170;-70
2023/12/02 04:54:09;;;;;;;8.30;5.67;;;1.20;99.90;;;;;;5073192;28;20196;-70
2023/12/02 04:56:35;;;;;;;8.97;6.37;;;1.30;99.90;;;;;;5073229;28;20193;-69
2023/12/02 04:59:01;;;;;;;8.53;5.30;;;1.30;99.90;;;;;;5071822;28;20442;-69
2023/12/02 05:01:26;;;;;;;10.37;7.07;;;1.30;99.90;;;;;;5072850;28;20911;-69
2023/12/02 05:03:52;;;;;;;9.07;6.37;;;1.30;99.90;;;;;;5072924;28;20220;-70
2023/12/02 05:06:18;;;;;;;8.47;6.77;;;1.30;99.90;;;;;;5073113;28;20173;-70
2023/12/02 05:08:46;;;;;;;10.80;6.93;;;1.40;99.90;;;;;;5072703;28;20533;-69
2023/12/02 05:11:20;;;;;;;12.07;6.67;;;1.40;99.90;;;;;;5073041;28;20323;-70
2023/12/02 05:13:46;;;;;;;9.70;6.80;;;1.40;99.90;;;;;;5072775;28;20412;-70
2023/12/02 05:16:12;;;;;;;13.37;7.50;;;1.40;99.90;;;;;;5072765;28;20982;-70
2023/12/02 05:18:40;;;;;;;12.20;7.60;;;1.40;99.90;;;;;;5072582;28;20397;-70
2023/12/02 05:21:06;;;;;;;10.23;6.63;;;1.40;99.90;;;;;;5072644;28;20178;-70
2023/12/02 05:23:32;;;;;;;11.10;7.47;;;1.40;99.90;;;;;;5073141;28;20404;-70
2023/12/02 05:25:58;;;;;;;9.37;7.43;;;1.40;99.90;;;;;;5071299;28;20530;-70
2023/12/02 05:28:23;;;;;;;10.03;6.53;;;1.30;99.90;;;;;;5071241;28;20166;-70
2023/12/02 05:30:50;;;;;;;10.47;6.17;;;1.30;99.90;;;;;;5072404;28;20681;-70
2023/12/02 05:33:17;;;;;;;7.87;6.20;;;1.30;99.90;;;;;;5071525;28;20154;-70
2023/12/02 05:35:43;;;;;;;11.60;6.57;;;1.30;99.90;;;;;;5072490;28;20396;-70
2023/12/02 05:38:08;;;;;;;10.60;6.43;;;1.30;99.90;;;;;;5072752;28;20393;-70
2023/12/02 05:40:34;;;;;;;9.70;6.30;;;1.20;99.90;;;;;;5071200;28;20198;-70
2023/12/02 05:42:59;;;;;;;7.43;5.67;;;1.20;99.90;;;;;;5072357;28;20178;-70
2023/12/02 05:45:25;;;;;;;10.10;6.90;;;1.20;99.90;;;;;;5071206;28;20166;-71
2023/12/02 05:47:50;;;;;;;13.03;7.50;;;1.20;99.90;;;;;;5072286;28;20169;-71
2023/12/02 05:50:16;;;;;;;10.77;6.93;;;1.10;99.90;;;;;;5072224;28;20196;-70
2023/12/02 05:52:41;;;;;;;10.37;7.20;;;1.20;99.90;;;;;;5070949;28;20194;-70
2023/12/02 05:55:07;;;;;;;12.97;7.20;;;1.00;99.90;;;;;;5072027;28;20190;-70
2023/12/02 05:57:33;;;;;;;10.10;6.40;;;1.10;99.90;;;;;;5071763;28;20270;-71
2023/12/02 05:59:58;;;;;;;11.83;7.50;;;1.10;99.90;;;;;;5072159;28;20452;-70
2023/12/02 06:02:24;;;;;;;14.83;7.83;;;1.10;99.90;;;;;;5071965;28;20177;-70
2023/12/02 06:04:49;;;;;;;11.33;6.90;;;1.10;99.90;;;;;;5072134;28;20162;-70
2023/12/02 06:07:15;;;;;;;9.90;7.40;;;1.10;99.90;;;;;;5072033;28;20178;-70
2023/12/02 06:09:43;;;;;;;7.63;5.87;;;1.00;99.90;;;;;;5072015;28;20243;-70
2023/12/02 06:12:10;;;;;;;11.00;7.40;;;1.00;99.90;;;;;;5072016;28;20540;-70
2023/12/02 06:14:35;;;;;;;12.00;7.60;;;1.00;99.90;;;;;;5072253;28;20462;-70
2023/12/02 06:17:01;;;;;;;7.00;5.47;;;1.00;99.90;;;;;;5071743;28;20440;-70
2023/12/02 06:19:28;;;;;;;10.90;7.43;;;1.10;99.90;;;;;;5070619;28;20545;-70
2023/12/02 06:21:54;;;;;;;8.00;6.40;;;1.00;99.90;;;;;;5071903;28;20409;-71
2023/12/02 06:24:19;;;;;;;9.57;7.60;;;1.10;99.90;;;;;;5071794;28;20614;-71
2023/12/02 06:26:45;;;;;;;17.80;8.13;;;1.10;99.90;;;;;;5071633;28;20248;-70
2023/12/02 06:29:11;;;;;;;12.80;8.50;;;1.10;99.90;;;;;;5071773;28;20166;-70
2023/12/02 06:31:37;;;;;;;8.43;6.83;;;1.10;99.90;;;;;;5071625;28;20193;-70
2023/12/02 06:34:04;;;;;;;11.07;7.53;;;1.10;99.90;;;;;;5071697;28;20423;-70
2023/12/02 06:36:30;;;;;;;13.27;7.73;;;1.10;99.90;;;;;;5070394;28;20226;-70
2023/12/02 06:38:56;;;;;;;13.17;8.00;;;1.00;99.90;;;;;;5071560;28;20404;-70
2023/12/02 06:41:21;;;;;;;14.87;8.97;;;1.00;99.90;;;;;;5071473;28;20420;-70
2023/12/02 06:43:48;;;;;;;15.90;8.00;;;1.00;99.90;;;;;;5071549;28;20243;-70
2023/12/02 06:46:24;;;;;;;16.57;9.27;;;1.00;99.90;;;;;;5074854;28;20192;-70
2023/12/02 06:48:50;;;;;;;12.73;7.27;;;1.00;99.90;;;;;;5075388;28;20408;-70
2023/12/02 06:51:16;;;;;;;15.40;8.90;;;1.00;99.90;;;;;;5074217;28;20521;-70
2023/12/02 06:53:42;;;;;;;12.43;8.23;;;1.00;99.90;;;;;;5075392;28;20436;-70
2023/12/02 06:56:18;;;;;;;9.83;7.50;;;1.00;99.90;;;;;;5075432;28;20490;-71
2023/12/02 06:58:43;;;;;;;10.43;7.93;;;1.00;99.90;;;;;;5074050;28;20223;-70
2023/12/02 07:01:09;;;;;;;12.97;9.07;;;1.00;99.90;;;;;;5073932;28;20424;-70
2023/12/02 07:03:37;;;;;;;12.63;7.70;;;0.90;99.90;;;;;;5075618;28;20174;-70
2023/12/02 07:06:04;;;;;;;14.60;8.00;;;0.90;99.90;;;;;;5075725;28;20158;-70
2023/12/02 07:08:29;;;;;;;12.60;8.40;;;0.90;99.90;;;;;;5075266;28;20396;-70
2023/12/02 07:10:55;;;;;;;14.67;7.53;;;0.90;99.90;;;;;;5073626;28;20427;-69
2023/12/02 07:13:20;;;;;;;14.03;7.80;;;0.90;99.90;;;;;;5073893;28;20171;-70
2023/12/02 07:15:45;;;;;;;12.53;7.03;;;0.90;99.90;;;;;;5073722;28;20167;-71
2023/12/02 07:18:11;;;;;;;11.63;7.43;;;0.90;99.90;;;;;;5073245;28;20296;-71
2023/12/02 07:20:37;;;;;;;13.67;7.93;;;1.00;99.90;;;;;;5075096;28;20673;-70
2023/12/02 07:23:03;;;;;;;12.23;7.90;;;1.00;99.90;;;;;;5074903;28;20170;-70
2023/12/02 07:25:28;;;;;;;15.27;9.43;;;1.00;99.90;;;;;;5073672;28;20401;-70
2023/12/02 07:27:54;;;;;;;13.87;8.00;;;1.00;99.90;;;;;;5074794;28;20166;-71
2023/12/02 07:30:19;;;;;;;21.00;9.90;;;1.10;99.90;;;;;;5073452;28;20565;-70
2023/12/02 07:32:46;;;;;;;14.83;7.77;;;1.00;99.90;;;;;;5074681;28;20174;-71
2023/12/02 07:35:11;;;;;;;14.43;8.03;;;1.10;99.90;;;;;;5074890;28;20158;-70
2023/12/02 07:37:37;;;;;;;14.50;8.87;;;1.10;99.90;;;;;;5074764;28;20805;-71
2023/12/02 07:40:03;;;;;;;13.20;7.70;;;1.10;99.90;;;;;;5074670;28;20190;-70
2023/12/02 07:42:28;;;;;;;12.37;7.30;;;1.10;99.90;;;;;;5074505;28;20162;-70
2023/12/02 07:44:54;;;;;;;12.30;7.47;;;1.10;99.90;;;;;;5074672;28;20495;-71
2023/12/02 07:47:19;;;;;;;13.73;8.03;;;1.10;99.90;;;;;;5073221;28;20285;-70
2023/12/02 07:49:45;;;;;;;14.07;7.73;;;1.10;99.90;;;;;;5073118;28;20659;-70
2023/12/02 07:52:10;;;;;;;11.73;7.13;;;1.10;99.90;;;;;;5074579;28;20170;-70
2023/12/02 07:54:36;;;;;;;18.13;9.10;;;1.10;99.90;;;;;;5074627;28;20255;-70
2023/12/02 07:57:02;;;;;;;14.17;8.37;;;1.20;99.90;;;;;;5073401;28;20251;-70
2023/12/02 07:59:28;;;;;;;15.63;7.53;;;1.20;99.90;;;;;;5074306;28;20154;-70
2023/12/02 08:01:53;;;;;;;9.37;6.80;;;1.20;99.90;;;;;;5074316;28;20401;-70
2023/12/02 08:04:19;;;;;;;10.27;6.77;;;1.30;99.90;;;;;;5074039;28;20166;-70
2023/12/02 08:06:45;;;;;;;10.97;7.23;;;1.30;99.90;;;;;;5074097;28;20515;-71
2023/12/02 08:09:14;;;;;;;14.27;7.93;;;1.40;99.90;;;;;;5074250;28;20492;-70
2023/12/02 08:11:39;;;;;;;16.23;8.03;;;1.40;99.90;;;;;;5074024;28;20228;-71
2023/12/02 08:14:06;;;;;;;13.87;7.67;;;1.40;99.90;;;;;;5074009;28;20409;-71
2023/12/02 08:16:31;;;;;;;11.93;7.60;;;1.50;99.90;;;;;;5073971;28;20679;-70
2023/12/02 08:18:57;;;;;;;12.80;8.57;;;1.50;99.90;;;;;;5073848;28;20396;-70
2023/12/02 08:21:22;;;;;;;17.33;9.20;;;1.50;99.90;;;;;;5073834;28;20214;-70
2023/12/02 08:23:49;;;;;;;14.63;8.30;;;1.60;99.90;;;;;;5074073;28;20656;-70
2023/12/02 08:26:15;;;;;;;12.07;8.03;;;1.60;99.90;;;;;;5074296;28;20582;-70
2023/12/02 08:28:40;;;;;;;10.60;7.17;;;1.60;99.90;;;;;;5073088;28;20428;-70
2023/12/02 08:31:06;;;;;;;8.60;6.60;;;1.70;99.90;;;;;;5073634;28;20182;-70
2023/12/02 08:33:31;;;;;;;12.17;6.70;;;1.70;99.90;;;;;;5072207;28;20170;-70
2023/12/02 08:35:57;;;;;;;9.20;6.83;;;1.80;99.90;;;;;;5073573;28;20162;-71
2023/12/02 08:38:22;;;;;;;11.90;7.70;;;1.80;99.90;;;;;;5073605;28;20649;-70
2023/12/02 08:40:49;;;;;;;14.10;8.07;;;1.90;99.90;;;;;;5073619;28;20186;-70
2023/12/02 08:43:15;;;;;;;14.10;7.77;;;1.90;99.90;;;;;;5072114;28;20174;-71
2023/12/02 08:45:40;;;;;;;15.10;8.20;;;1.90;99.90;;;;;;5073414;28;20461;-70
2023/12/02 08:48:06;;;;;;;10.30;6.37;;;2.00;99.90;;;;;;5073279;28;20815;-70
2023/12/02 08:50:31;;;;;;;14.40;8.33;;;2.00;99.90;;;;;;5073302;28;20182;-70
2023/12/02 08:52:57;;;;;;;15.17;8.07;;;2.00;99.90;;;;;;5073271;28;20177;-70
2023/12/02 08:55:22;;;;;;;15.10;7.27;;;2.10;99.90;;;;;;5073327;28;20653;-70
2023/12/02 08:57:48;;;;;;;12.03;7.20;;;2.10;99.90;;;;;;5072927;28;20190;-70
2023/12/02 09:00:14;;;;;;;11.37;7.20;;;2.10;99.90;;;;;;5073002;28;20182;-71
2023/12/02 09:02:39;;;;;;;9.87;6.50;;;2.20;99.90;;;;;;5072937;28;20252;-70
2023/12/02 09:05:05;;;;;;;12.23;7.20;;;2.30;99.90;;;;;;5073127;28;20275;-70
2023/12/02 09:07:31;;;;;;;11.77;8.17;;;2.40;99.90;;;;;;5071332;28;20167;-71
2023/12/02 09:09:57;;;;;;;11.90;7.03;;;2.40;99.90;;;;;;5072887;28;20444;-71
2023/12/02 09:12:23;;;;;;;15.00;8.00;;;2.40;99.90;;;;;;5072771;28;20174;-71
2023/12/02 09:15:15;;;;;;;11.77;6.30;;;2.40;99.90;;;;;;5072685;28;20446;-70
2023/12/02 09:17:44;;;;;;;9.63;6.80;;;2.40;99.90;;;;;;5071334;28;20198;-70
2023/12/02 09:20:43;;;;;;;9.30;6.23;;;2.40;99.90;;;;;;5072693;28;20508;-70
2023/12/02 09:23:10;;;;;;;9.93;6.27;;;2.50;99.90;;;;;;5063946;28;20413;-71
2023/12/02 09:25:38;;;;;;;12.00;7.53;;;2.60;99.90;;;;;;5072537;28;20455;-71
2023/12/02 09:28:06;;;;;;;14.37;8.87;;;2.80;99.90;;;;;;5071238;28;20486;-70
2023/12/02 09:31:06;;;;;;;10.77;6.30;;;3.00;99.90;;;;;;5071219;28;20459;-71
2023/12/02 09:33:32;;;;;;;9.43;6.30;;;3.20;99.90;;;;;;5069805;28;21102;-70
2023/12/02 09:36:01;;;;;;;10.30;7.07;;;3.50;99.90;;;;;;5071057;28;20408;-71
2023/12/02 09:38:28;;;;;;;7.77;5.40;;;3.70;99.90;;;;;;5072236;28;20404;-71
2023/12/02 09:41:07;;;;;;;8.60;6.33;;;4.00;99.90;;;;;;5072445;28;20478;-71
2023/12/02 09:43:56;;;;;;;8.73;5.27;;;4.30;99.90;;;;;;5072271;28;20396;-71
2023/12/02 09:46:27;;;;;;;8.90;5.93;;;4.50;99.90;;;;;;5072575;28;20895;-71
2023/12/02 09:49:17;;;;;;;10.20;6.30;;;4.60;99.90;;;;;;5071000;28;20408;-71
2023/12/02 09:51:49;;;;;;;6.90;5.33;;;4.70;99.90;;;;;;5072231;28;20748;-71
2023/12/02 09:54:48;;;;;;;9.27;5.43;;;4.60;99.90;;;;;;5072007;28;20425;-72
2023/12/02 09:57:39;;;;;;;8.40;6.40;;;4.40;99.90;;;;;;5071838;28;20463;-71
2023/12/02 10:00:12;;;;;;;7.13;5.83;;;4.30;99.90;;;;;;5071080;28;20458;-72
2023/12/02 10:03:24;;;;;;;11.70;6.20;;;4.20;99.90;;;;;;5072232;28;20503;-72
2023/12/02 10:06:04;;;;;;;8.43;5.40;;;4.10;99.90;;;;;;5072472;28;20420;-71
2023/12/02 10:08:48;;;;;;;9.03;5.07;;;4.10;99.90;;;;;;5072086;28;20411;-72
2023/12/02 10:11:53;;;;;;;11.30;6.33;;;4.00;99.90;;;;;;5072005;28;20424;-72
2023/12/02 10:14:23;;;;;;;7.03;4.83;;;4.00;99.90;;;;;;5071157;28;20443;-72
2023/12/02 10:16:52;;;;;;;8.00;5.17;;;4.00;99.90;;;;;;5072163;28;21105;-72
2023/12/02 10:19:29;;;;;;;6.70;5.00;;;3.90;99.90;;;;;;5071399;28;20420;-71
2023/12/02 10:21:59;;;;;;;12.40;5.40;;;3.90;99.90;;;;;;5071967;28;20762;-72
2023/12/02 10:24:56;;;;;;;9.00;5.43;;;3.90;99.90;;;;;;5072037;28;20409;-72
2023/12/02 10:27:25;;;;;;;8.97;6.00;;;3.90;99.90;;;;;;5042718;28;20952;-72
2023/12/02 10:30:03;;;;;;;9.90;6.60;;;3.90;99.90;;;;;;5055576;28;20844;-71
2023/12/02 10:32:52;;;;;;;10.63;5.63;;;3.90;99.90;;;;;;5072117;28;20407;-72
2023/12/02 10:35:51;;;;;;;6.87;5.23;;;3.90;99.90;;;;;;5070275;28;20417;-72
2023/12/02 10:38:50;;;;;;;6.97;5.70;;;3.90;99.90;;;;;;5048680;28;20433;-71
2023/12/02 10:41:19;;;;;;;8.77;5.53;;;4.10;99.90;;;;;;5034138;28;20525;-72
2023/12/02 10:43:50;;;;;;;7.07;5.47;;;4.40;99.90;;;;;;5071825;28;20395;-71
2023/12/02 10:46:16;;;;;;;11.80;5.77;;;4.80;99.90;;;;;;5070565;28;20823;-73
2023/12/02 10:48:43;;;;;;;9.27;6.43;;;5.00;99.90;;;;;;5070299;28;20416;-72
2023/12/02 10:51:10;;;;;;;7.77;6.03;;;5.20;99.90;;;;;;5071912;28;20439;-71
2023/12/02 10:53:37;;;;;;;8.90;6.77;;;5.50;99.90;;;;;;5070342;28;20408;-72
2023/12/02 10:56:11;;;;;;;9.87;7.30;;;5.80;99.90;;;;;;5071686;28;20904;-72
2023/12/02 10:58:39;;;;;;;14.20;10.03;;;6.10;99.90;;;;;;5071631;28;20419;-72
2023/12/02 11:01:07;;;;;;;12.97;8.80;;;6.40;99.90;;;;;;5071461;28;20460;-71
2023/12/02 11:03:41;;;;;;;10.27;7.00;;;6.60;99.00;;;;;;5071604;28;20408;-72
2023/12/02 11:06:25;;;;;;;13.60;9.27;;;6.80;96.80;;;;;;5071663;28;20805;-72
2023/12/02 11:09:01;;;;;;;12.13;7.53;;;7.20;96.30;;;;;;5070140;28;20903;-72
2023/12/02 11:11:52;;;;;;;11.10;7.20;;;8.50;99.30;;;;;;5071117;28;20447;-73
2023/12/02 11:14:20;;;;;;;12.50;8.77;;;9.80;93.10;;;;;;5071790;28;20412;-72
2023/12/02 11:16:54;;;;;;;9.53;7.40;;;10.90;82.90;;;;;;5071180;28;20464;-72
2023/12/02 11:19:38;;;;;;;11.37;8.07;;;12.60;80.90;;;;;;5071365;28;20396;-73
2023/12/02 11:22:23;;;;;;;11.30;8.30;;;14.00;72.50;;;;;;5071323;28;20950;-70
2023/12/02 11:24:51;;;;;;;8.83;7.20;;;16.10;58.80;;;;;;5071603;28;20403;-71
2023/12/02 11:27:47;;;;;;;11.20;8.07;;;16.70;50.60;;;;;;5069933;28;20838;-69
2023/12/02 11:30:13;;;;;;;9.33;5.67;;;17.00;47.30;;;;;;5029060;28;20433;-70
2023/12/02 11:32:38;;;;;;;6.97;5.87;;;17.10;44.90;;;;;;5052996;28;20408;-72
2023/12/02 11:35:25;;;;;;;8.67;7.17;;;16.80;42.20;;;;;;5066540;28;20295;-71
2023/12/02 11:37:59;;;;;;;8.83;7.20;;;16.50;39.00;;;;;;5074489;28;20292;-70
2023/12/02 11:40:58;;;;;;;7.80;6.60;;;15.60;38.40;;;;;;5074567;28;20503;-71
2023/12/02 11:43:39;;;;;;;9.47;5.43;;;14.60;39.10;;;;;;5074592;28;20401;-71
2023/12/02 11:46:08;;;;;;;8.93;6.37;;;13.90;40.40;;;;;;5074607;28;20950;-72
2023/12/02 11:48:48;;;;;;;11.93;6.93;;;13.70;42.10;;;;;;5074383;28;20405;-71
2023/12/02 11:51:27;;;;;;;8.50;6.10;;;13.70;42.60;;;;;;5073253;28;20433;-71
2023/12/02 11:54:04;;;;;;;9.03;6.97;;;13.80;42.40;;;;;;5074326;28;20477;-70
2023/12/02 11:56:30;;;;;;;8.83;6.13;;;13.50;41.80;;;;;;5074560;28;20460;-70
2023/12/02 11:59:08;;;;;;;7.20;5.40;;;13.70;42.70;;;;;;5074271;28;20499;-70
2023/12/02 12:01:54;;;;;;;8.47;6.90;;;14.80;44.00;;;;;;5074316;28;20466;-71
2023/12/02 12:04:47;;;;;;;8.60;7.70;;;16.90;42.30;;;;;;5074373;28;20431;-70
2023/12/02 12:07:34;;;;;;;8.60;6.70;;;18.10;40.20;;;;;;5074092;28;20827;-71
2023/12/02 12:10:17;;;;;;;7.37;6.63;;;20.00;38.30;;;;;;5072602;28;20543;-71
2023/12/02 12:12:47;;;;;;;7.30;6.60;;;20.10;35.50;;;;;;5074416;28;20500;-71
2023/12/02 12:15:13;;;;;;;8.17;6.50;;;19.40;34.00;;;;;;5074377;28;20915;-70
2023/12/02 12:17:39;;;;;;;6.90;6.20;;;20.20;35.30;;;;;;5074088;28;20451;-70
2023/12/02 12:20:21;;;;;;;7.73;7.03;;;21.20;34.30;;;;;;5074108;28;20540;-71
2023/12/02 12:22:47;;;;;;;8.30;7.50;;;22.50;33.60;;;;;;5073915;28;20542;-70
2023/12/02 12:25:13;;;;;;;6.37;5.77;;;23.40;31.30;;;;;;5074042;28;20458;-72
2023/12/02 12:27:39;;;;;;;6.77;6.17;;;24.00;30.10;;;;;;5072426;28;20417;-72
2023/12/02 12:30:07;;;;;;;7.83;7.13;;;24.40;29.30;;;;;;5072994;28;20194;-71
2023/12/02 12:32:33;;;;;;;6.67;6.03;;;24.90;28.80;;;;;;5072656;28;20470;-71
2023/12/02 12:34:58;;;;;;;6.27;5.67;;;25.40;28.00;;;;;;5072744;28;20841;-71
2023/12/02 12:37:24;;;;;;;8.90;8.13;;;25.90;28.00;;;;;;5072271;28;20737;-71
2023/12/02 12:39:50;;;;;;;8.27;7.50;;;26.50;26.80;;;;;;5073399;28;20280;-71
2023/12/02 12:42:19;;;;;;;8.37;7.33;;;26.50;26.00;;;;;;5072879;28;20216;-71
2023/12/02 12:44:45;;;;;;;13.40;9.53;;;25.50;25.20;;;;;;5073490;28;20405;-70
2023/12/02 12:47:11;;;;;;;8.83;7.93;;;24.70;25.60;;;;;;5073107;28;20891;-71
2023/12/02 12:49:39;;;;;;;10.00;7.57;;;24.50;25.70;;;;;;5073824;28;20217;-71
2023/12/02 12:52:12;;;;;;;8.57;6.90;;;24.60;26.00;;;;;;5072952;28;20409;-71
2023/12/02 12:54:51;;;;;;;10.37;6.90;;;24.80;26.00;;;;;;5073153;28;20436;-70